createdAt,value
2022-11-04T00:01:43.446Z,62.88
2022-11-04T00:04:12.799Z,63.15
2022-11-04T00:06:40.665Z,63.62
2022-11-04T00:09:12.263Z,63.37
2022-11-04T00:11:58.253Z,62.97
2022-11-04T00:14:25.403Z,63.39
2022-11-04T00:17:11.019Z,63.21
2022-11-04T00:19:56.636Z,63.06
2022-11-04T00:22:41.998Z,63.07
2022-11-04T00:25:29.717Z,62.95
2022-11-04T00:28:25.636Z,62.64
2022-11-04T00:30:57.412Z,62.61
2022-11-04T00:33:27.428Z,62.65
2022-11-04T00:35:57.226Z,62.17
2022-11-04T00:38:25.711Z,62.10
2022-11-04T00:40:54.051Z,61.92
2022-11-04T00:43:21.106Z,62.10
2022-11-04T00:45:48.071Z,61.91
2022-11-04T00:48:15.034Z,61.55
2022-11-04T00:50:42.483Z,61.71
2022-11-04T00:53:09.836Z,61.87
2022-11-04T00:55:37.053Z,61.69
2022-11-04T00:58:05.352Z,61.60
2022-11-04T01:00:32.353Z,61.70
2022-11-04T01:03:00.267Z,61.71
2022-11-04T01:05:27.583Z,61.67
2022-11-04T01:07:54.657Z,61.63
2022-11-04T01:10:21.703Z,61.92
2022-11-04T01:12:48.676Z,62.06
2022-11-04T01:15:17.073Z,61.92
2022-11-04T01:17:44.039Z,61.81
2022-11-04T01:20:13.470Z,61.50
2022-11-04T01:22:40.761Z,61.77
2022-11-04T01:25:09.415Z,61.62
2022-11-04T01:27:36.456Z,61.56
2022-11-04T01:30:04.535Z,61.55
2022-11-04T01:32:32.823Z,61.29
2022-11-04T01:34:59.758Z,61.77
2022-11-04T01:37:27.215Z,62.06
2022-11-04T01:39:54.176Z,61.85
2022-11-04T01:42:21.912Z,61.98
2022-11-04T01:44:58.084Z,62.06
2022-11-04T01:47:36.768Z,61.68
2022-11-04T01:50:10.873Z,61.77
2022-11-04T01:52:48.887Z,61.87
2022-11-04T01:55:21.196Z,62.03
2022-11-04T01:57:52.803Z,62.26
2022-11-04T02:00:20.262Z,62.47
2022-11-04T02:02:58.163Z,61.98
2022-11-04T02:05:25.219Z,62.12
2022-11-04T02:07:58.077Z,61.96
2022-11-04T02:10:29.511Z,61.46
2022-11-04T02:12:59.256Z,61.82
2022-11-04T02:15:39.921Z,62.30
2022-11-04T02:18:37.128Z,62.65
2022-11-04T02:21:42.881Z,62.77
2022-11-04T02:24:34.495Z,62.69
2022-11-04T02:27:28.773Z,62.84
2022-11-04T02:30:10.129Z,62.63
2022-11-04T02:33:03.539Z,62.74
2022-11-04T02:35:47.631Z,62.65
2022-11-04T02:38:30.928Z,62.34
2022-11-04T02:41:06.807Z,62.37
2022-11-04T02:43:49.701Z,62.09
2022-11-04T02:46:28.192Z,61.58
2022-11-04T02:49:02.858Z,61.14
2022-11-04T02:51:37.233Z,60.85
2022-11-04T02:54:11.223Z,60.57
2022-11-04T02:56:46.617Z,60.26
2022-11-04T02:59:22.140Z,59.55
2022-11-04T03:01:56.453Z,58.37
2022-11-04T03:04:29.296Z,57.75
2022-11-04T03:06:59.237Z,58.07
2022-11-04T03:09:30.933Z,57.24
2022-11-04T03:12:04.315Z,56.19
2022-11-04T03:14:40.968Z,56.42
2022-11-04T03:17:20.993Z,54.96
2022-11-04T03:19:56.265Z,55.12
2022-11-04T03:22:41.091Z,55.43
2022-11-04T03:25:10.157Z,55.03
2022-11-04T03:27:49.903Z,55.18
2022-11-04T03:30:20.168Z,55.18
2022-11-04T03:33:01.785Z,54.95
2022-11-04T03:35:29.637Z,54.88
2022-11-04T03:37:58.339Z,54.81
2022-11-04T03:40:26.764Z,54.99
2022-11-04T03:43:00.024Z,54.83
2022-11-04T03:45:27.621Z,55.13
2022-11-04T03:47:58.010Z,54.87
2022-11-04T03:50:28.608Z,55.14
2022-11-04T03:55:56.692Z,55.82
2022-11-04T03:58:37.129Z,55.61
2022-11-04T04:01:15.985Z,55.72
2022-11-04T04:03:54.456Z,55.69
2022-11-04T04:06:28.800Z,55.47
2022-11-04T04:09:03.619Z,55.79
2022-11-04T04:11:42.428Z,56.05
2022-11-04T04:14:38.914Z,56.55
2022-11-04T04:17:14.175Z,56.43
2022-11-04T04:19:47.888Z,56.36
2022-11-04T04:22:21.464Z,56.49
2022-11-04T04:25:13.727Z,56.63
2022-11-04T04:27:42.918Z,56.29
2022-11-04T04:30:13.851Z,56.40
2022-11-04T04:32:45.313Z,56.32
2022-11-04T04:35:33.427Z,56.39
2022-11-04T04:38:24.957Z,56.17
2022-11-04T04:41:19.629Z,56.40
2022-11-04T04:44:05.665Z,56.04
2022-11-04T04:46:33.997Z,56.17
2022-11-04T04:49:05.709Z,56.24
2022-11-04T04:51:38.525Z,56.10
2022-11-04T04:54:06.753Z,56.09
2022-11-04T04:56:33.706Z,56.03
2022-11-04T04:59:00.653Z,56.08
2022-11-04T05:01:28.186Z,56.05
2022-11-04T05:03:55.290Z,55.91
2022-11-04T05:06:22.346Z,55.93
2022-11-04T05:08:50.653Z,55.86
2022-11-04T05:11:20.495Z,55.93
2022-11-04T05:13:49.697Z,55.82
2022-11-04T05:16:16.665Z,55.70
2022-11-04T05:18:43.598Z,55.75
2022-11-04T05:21:15.449Z,55.89
2022-11-04T05:23:42.360Z,55.78
2022-11-04T05:26:10.586Z,55.86
2022-11-04T05:28:38.519Z,55.75
2022-11-04T05:31:07.413Z,55.66
2022-11-04T05:33:34.465Z,55.74
2022-11-04T05:36:09.660Z,55.70
2022-11-04T05:38:36.934Z,55.46
2022-11-04T05:41:05.127Z,55.34
2022-11-04T05:43:34.297Z,55.09
2022-11-04T05:46:01.773Z,55.33
2022-11-04T05:48:29.429Z,55.16
2022-11-04T05:50:57.036Z,55.03
2022-11-04T05:53:24.080Z,55.03
2022-11-04T05:55:51.329Z,54.86
2022-11-04T05:58:18.237Z,55.29
2022-11-04T06:00:46.499Z,55.03
2022-11-04T06:03:16.337Z,54.81
2022-11-04T06:05:43.571Z,54.72
2022-11-04T06:08:10.933Z,54.67
2022-11-04T06:10:38.127Z,54.78
2022-11-04T06:13:05.072Z,54.85
2022-11-04T06:15:32.087Z,54.63
2022-11-04T06:18:00.649Z,54.70
2022-11-04T06:20:28.026Z,54.86
2022-11-04T06:22:55.327Z,54.86
2022-11-04T06:25:22.269Z,54.62
2022-11-04T06:27:49.262Z,54.61
2022-11-04T06:30:16.593Z,54.63
2022-11-04T06:32:43.546Z,54.39
2022-11-04T06:35:13.517Z,54.10
2022-11-04T06:37:43.390Z,54.16
2022-11-04T06:40:11.420Z,53.85
2022-11-04T06:42:38.810Z,54.07
2022-11-04T06:45:07.210Z,54.18
2022-11-04T06:47:34.222Z,53.97
2022-11-04T06:50:01.946Z,53.83
2022-11-04T06:52:30.262Z,53.85
2022-11-04T06:55:00.345Z,53.26
2022-11-04T06:57:27.314Z,53.49
2022-11-04T06:59:54.491Z,53.78
2022-11-04T07:02:21.621Z,53.68
2022-11-04T07:04:48.695Z,53.56
2022-11-04T07:07:15.646Z,53.11
2022-11-04T07:09:44.179Z,53.06
2022-11-04T07:12:11.141Z,53.31
2022-11-04T07:14:38.193Z,53.15
2022-11-04T07:17:05.135Z,53.24
2022-11-04T07:19:32.152Z,53.11
2022-11-04T07:21:59.119Z,52.85
2022-11-04T07:24:26.066Z,52.55
2022-11-04T07:26:56.269Z,53.09
2022-11-04T07:29:25.280Z,53.20
2022-11-04T07:31:55.537Z,53.34
2022-11-04T07:34:22.847Z,53.48
2022-11-04T07:36:52.164Z,53.55
2022-11-04T07:39:19.162Z,53.36
2022-11-04T07:41:46.225Z,53.69
2022-11-04T07:44:14.571Z,54.31
2022-11-04T07:46:41.703Z,54.97
2022-11-04T07:49:08.767Z,55.13
2022-11-04T07:51:35.820Z,54.99
2022-11-04T07:54:02.966Z,55.51
2022-11-04T07:56:30.058Z,55.62
2022-11-04T07:58:57.628Z,55.35
2022-11-04T08:01:26.135Z,55.34
2022-11-04T08:03:53.617Z,55.51
2022-11-04T08:06:21.710Z,55.58
2022-11-04T08:08:49.196Z,55.54
2022-11-04T08:11:31.730Z,55.62
2022-11-04T08:14:19.144Z,55.35
2022-11-04T08:16:50.819Z,55.41
2022-11-04T08:19:17.754Z,55.22
2022-11-04T08:21:44.986Z,55.12
2022-11-04T08:24:12.113Z,55.57
2022-11-04T08:26:39.231Z,55.30
2022-11-04T08:29:08.188Z,55.27
2022-11-04T08:31:35.821Z,55.21
2022-11-04T08:34:06.033Z,54.96
2022-11-04T08:36:37.027Z,54.98
2022-11-04T08:39:10.396Z,54.94
2022-11-04T08:41:40.915Z,54.67
2022-11-04T08:44:08.789Z,54.32
2022-11-04T08:46:39.493Z,54.39
2022-11-04T08:49:10.234Z,54.05
2022-11-04T08:51:42.701Z,53.75
2022-11-04T08:54:10.419Z,53.29
2022-11-04T08:56:39.886Z,53.30
2022-11-04T08:59:08.181Z,53.17
2022-11-04T09:01:39.082Z,53.13
2022-11-04T09:04:10.211Z,53.23
2022-11-04T09:06:47.095Z,53.27
2022-11-04T09:09:17.193Z,53.25
2022-11-04T09:11:50.309Z,52.60
2022-11-04T09:14:26.165Z,52.33
2022-11-04T09:16:56.552Z,52.62
2022-11-04T09:19:30.281Z,52.62
2022-11-04T09:22:04.627Z,52.42
2022-11-04T09:24:34.899Z,52.24
2022-11-04T09:27:08.180Z,51.80
2022-11-04T09:29:53.644Z,51.84
2022-11-04T09:32:24.000Z,51.84
2022-11-04T09:34:52.620Z,51.74
2022-11-04T09:37:20.140Z,51.65
2022-11-04T09:39:53.842Z,51.71
2022-11-04T09:42:42.949Z,51.40
2022-11-04T09:45:22.578Z,51.08
2022-11-04T09:47:57.923Z,51.21
2022-11-04T09:50:33.126Z,51.25
2022-11-04T09:53:08.861Z,51.22
2022-11-04T09:55:46.758Z,51.09
2022-11-04T09:58:17.570Z,51.10
2022-11-04T10:00:58.391Z,50.69
2022-11-04T10:03:48.530Z,50.47
2022-11-04T10:06:40.959Z,50.12
2022-11-04T10:09:30.472Z,49.81
2022-11-04T10:12:21.857Z,50.01
2022-11-04T10:15:33.963Z,49.21
2022-11-04T10:18:25.583Z,48.57
2022-11-04T10:21:09.161Z,49.00
2022-11-04T10:23:46.520Z,48.81
2022-11-04T10:26:44.546Z,48.79
2022-11-04T10:29:19.905Z,48.55
2022-11-04T10:31:48.179Z,47.73
2022-11-04T10:34:32.980Z,47.22
2022-11-04T10:37:00.338Z,47.45
2022-11-04T10:39:48.610Z,47.73
2022-11-04T10:42:22.152Z,47.74
2022-11-04T10:44:52.136Z,48.43
2022-11-04T10:47:46.741Z,48.00
2022-11-04T10:50:35.420Z,47.63
2022-11-04T10:53:12.862Z,47.45
2022-11-04T10:55:52.192Z,47.15
2022-11-04T10:58:28.480Z,47.11
2022-11-04T11:01:00.715Z,47.22
2022-11-04T11:03:33.513Z,46.61
2022-11-04T11:06:26.688Z,46.88
2022-11-04T11:08:59.226Z,47.01
2022-11-04T11:11:48.337Z,46.42
2022-11-04T11:14:18.955Z,46.28
2022-11-04T11:16:49.394Z,46.54
2022-11-04T11:19:40.097Z,46.42
2022-11-04T11:22:56.561Z,45.97
2022-11-04T11:25:32.747Z,46.31
2022-11-04T11:28:08.679Z,45.83
2022-11-04T11:30:53.983Z,46.17
2022-11-04T11:33:27.815Z,45.84
2022-11-04T11:36:02.540Z,45.61
2022-11-04T11:38:33.168Z,45.01
2022-11-04T11:44:00.646Z,44.85
2022-11-04T11:46:31.857Z,45.20
2022-11-04T11:49:01.669Z,44.90
2022-11-04T11:51:35.383Z,44.98
2022-11-04T11:54:22.814Z,45.03
2022-11-04T12:03:13.228Z,45.18
2022-11-04T12:11:59.387Z,45.29
2022-11-04T12:14:49.167Z,45.34
2022-11-04T12:17:48.414Z,44.53
2022-11-04T12:20:39.973Z,44.75
2022-11-04T12:23:21.647Z,44.93
2022-11-04T12:26:10.992Z,45.39
2022-11-04T12:28:59.638Z,45.68
2022-11-04T12:31:41.830Z,45.53
2022-11-04T12:34:26.075Z,45.62
2022-11-04T12:37:11.454Z,45.68
2022-11-04T12:40:07.310Z,45.85
2022-11-04T12:42:54.805Z,46.33
2022-11-04T12:45:42.707Z,46.27
2022-11-04T12:48:18.290Z,46.23
2022-11-04T12:51:07.557Z,46.26
2022-11-04T12:54:16.141Z,46.25
2022-11-04T12:56:43.139Z,45.72
2022-11-04T12:59:54.006Z,45.97
2022-11-04T13:02:29.040Z,45.59
2022-11-04T13:05:03.875Z,45.15
2022-11-04T13:07:39.991Z,45.59
2022-11-04T13:10:18.813Z,45.37
2022-11-04T13:12:50.750Z,45.46
2022-11-04T13:15:22.592Z,45.51
2022-11-04T13:17:57.762Z,45.55
2022-11-04T13:20:34.470Z,45.66
2022-11-04T13:23:13.441Z,45.84
2022-11-04T13:25:45.973Z,45.49
2022-11-04T13:28:17.084Z,45.50
2022-11-04T13:30:55.441Z,45.59
2022-11-04T13:33:37.421Z,45.56
2022-11-04T13:36:23.587Z,46.13
2022-11-04T13:38:56.496Z,45.63
2022-11-04T13:42:17.334Z,45.71
2022-11-04T13:44:48.224Z,45.39
2022-11-04T13:47:22.367Z,45.31
2022-11-04T13:49:52.127Z,45.73
2022-11-04T13:52:19.832Z,45.76
2022-11-04T13:54:57.587Z,45.72
2022-11-04T13:57:28.205Z,45.75
2022-11-04T14:00:22.613Z,45.81
2022-11-04T14:02:51.127Z,45.78
2022-11-04T14:06:05.640Z,46.14
2022-11-04T14:08:34.402Z,46.24
2022-11-04T14:11:11.671Z,46.59
2022-11-04T14:14:00.425Z,46.43
2022-11-04T14:16:45.340Z,46.12
2022-11-04T14:20:00.552Z,46.39
2022-11-04T14:22:35.416Z,46.56
2022-11-04T14:25:20.513Z,46.50
2022-11-04T14:27:51.476Z,46.11
2022-11-04T14:30:35.784Z,46.23
2022-11-04T14:33:07.651Z,46.31
2022-11-04T14:35:36.423Z,46.57
2022-11-04T14:38:24.115Z,46.34
2022-11-04T14:41:14.542Z,46.44
2022-11-04T14:43:47.291Z,46.52
2022-11-04T14:46:23.294Z,46.48
2022-11-04T14:48:56.387Z,46.85
2022-11-04T14:51:30.166Z,46.54
2022-11-04T14:54:05.814Z,46.72
2022-11-04T14:56:33.155Z,47.15
2022-11-04T14:59:05.478Z,46.90
2022-11-04T15:01:35.566Z,47.14
2022-11-04T15:04:26.778Z,47.04
2022-11-04T15:06:55.903Z,46.96
2022-11-04T15:09:26.582Z,47.27
2022-11-04T15:12:24.765Z,47.19
2022-11-04T15:14:53.125Z,47.19
2022-11-04T15:17:25.507Z,47.47
2022-11-04T15:19:56.069Z,47.14
2022-11-04T15:22:24.094Z,46.94
2022-11-04T15:24:51.533Z,46.93
2022-11-04T15:27:27.986Z,46.94
2022-11-04T15:29:59.070Z,46.92
2022-11-04T15:32:27.390Z,46.77
2022-11-04T15:34:56.403Z,46.81
2022-11-04T15:37:25.551Z,46.75
2022-11-04T15:39:57.784Z,46.79
2022-11-04T15:42:43.472Z,46.83
2022-11-04T15:45:37.873Z,46.85
2022-11-04T15:48:29.853Z,47.13
2022-11-04T15:51:15.890Z,47.08
2022-11-04T15:53:55.750Z,47.34
2022-11-04T15:56:27.455Z,47.02
2022-11-04T15:58:58.025Z,47.31
2022-11-04T16:01:28.980Z,47.39
2022-11-04T16:03:58.927Z,47.68
2022-11-04T16:06:39.034Z,47.76
2022-11-04T16:09:22.784Z,47.23
2022-11-04T16:12:12.781Z,47.66
2022-11-04T16:14:48.780Z,47.66
2022-11-04T16:17:17.106Z,47.75
2022-11-04T16:19:49.213Z,47.78
2022-11-04T16:22:24.115Z,47.86
2022-11-04T16:24:53.962Z,48.03
2022-11-04T16:27:23.581Z,48.07
2022-11-04T16:30:02.683Z,48.52
2022-11-04T16:32:41.845Z,48.64
2022-11-04T16:35:24.704Z,48.71
2022-11-04T16:37:52.567Z,48.86
2022-11-04T16:40:21.582Z,48.97
2022-11-04T16:42:50.488Z,49.15
2022-11-04T16:45:25.290Z,49.21
2022-11-04T16:47:57.144Z,49.34
2022-11-04T16:50:24.764Z,49.43
2022-11-04T16:52:52.492Z,49.66
2022-11-04T16:55:21.460Z,49.72
2022-11-04T16:58:00.068Z,49.69
2022-11-04T17:00:29.054Z,49.75
2022-11-04T17:02:57.378Z,49.74
2022-11-04T17:05:24.427Z,49.90
2022-11-04T17:07:54.454Z,49.78
2022-11-04T17:10:26.766Z,49.69
2022-11-04T17:12:54.318Z,49.94
2022-11-04T17:15:22.462Z,49.78
2022-11-04T17:17:49.590Z,49.67
2022-11-04T17:20:20.164Z,49.95
2022-11-04T17:22:49.076Z,50.00
2022-11-04T17:25:19.953Z,49.60
2022-11-04T17:27:47.444Z,49.70
2022-11-04T17:30:16.934Z,49.69
2022-11-04T17:32:45.779Z,49.78
2022-11-04T17:35:13.649Z,49.83
2022-11-04T17:37:42.946Z,50.07
2022-11-04T17:40:15.633Z,49.90
2022-11-04T17:43:03.417Z,49.89
2022-11-04T17:45:33.402Z,49.73
2022-11-04T17:48:03.632Z,49.93
2022-11-04T17:50:31.668Z,50.00
2022-11-04T17:53:00.142Z,49.87
2022-11-04T17:55:27.853Z,49.93
2022-11-04T17:57:55.446Z,50.33
2022-11-04T18:00:29.236Z,49.98
2022-11-04T18:02:56.391Z,49.90
2022-11-04T18:05:23.393Z,50.20
2022-11-04T18:07:50.377Z,50.01
2022-11-04T18:10:19.041Z,50.42
2022-11-04T18:12:45.974Z,50.17
2022-11-04T18:15:17.017Z,50.33
2022-11-04T18:17:46.091Z,50.53
2022-11-04T18:20:15.739Z,50.52
2022-11-04T18:22:43.491Z,50.87
2022-11-04T18:25:11.691Z,51.05
2022-11-04T18:27:40.119Z,51.25
2022-11-04T18:30:09.293Z,51.56
2022-11-04T18:32:36.259Z,51.46
2022-11-04T18:35:03.527Z,51.72
2022-11-04T18:37:30.581Z,51.59
2022-11-04T18:39:57.497Z,51.75
2022-11-04T18:42:24.621Z,51.81
2022-11-04T18:44:52.924Z,52.19
2022-11-04T18:47:20.303Z,51.95
2022-11-04T18:49:47.732Z,52.14
2022-11-04T18:52:14.798Z,52.40
2022-11-04T18:54:42.973Z,52.47
2022-11-04T18:57:12.740Z,52.60
2022-11-04T18:59:39.746Z,52.84
2022-11-04T19:02:23.277Z,52.86
2022-11-04T19:04:50.955Z,53.21
2022-11-04T19:07:18.439Z,53.26
2022-11-04T19:09:47.420Z,53.08
2022-11-04T19:12:33.366Z,53.41
2022-11-04T19:15:00.457Z,53.49
2022-11-04T19:17:28.731Z,53.44
2022-11-04T19:19:55.652Z,53.55
2022-11-04T19:22:22.626Z,53.41
2022-11-04T19:24:49.652Z,53.38
2022-11-04T19:27:18.666Z,53.65
2022-11-04T19:29:45.737Z,53.75
2022-11-04T19:32:14.183Z,53.68
2022-11-04T19:34:43.913Z,54.07
2022-11-04T19:37:11.396Z,54.00
2022-11-04T19:39:39.107Z,54.23
2022-11-04T19:42:25.237Z,54.33
2022-11-04T19:44:52.857Z,54.07
2022-11-04T19:47:19.876Z,54.25
2022-11-04T19:49:48.202Z,54.21
2022-11-04T19:52:15.239Z,53.95
2022-11-04T19:54:42.161Z,53.88
2022-11-04T19:57:09.094Z,53.94
2022-11-04T19:59:36.074Z,53.70
2022-11-04T20:02:03.139Z,53.57
2022-11-04T20:04:30.186Z,53.88
2022-11-04T20:06:58.622Z,53.58
2022-11-04T20:09:25.967Z,53.52
2022-11-04T20:12:11.749Z,54.02
2022-11-04T20:14:38.668Z,53.93
2022-11-04T20:17:06.010Z,54.25
2022-11-04T20:19:33.434Z,54.19
2022-11-04T20:22:01.788Z,54.33
2022-11-04T20:24:28.978Z,54.25
2022-11-04T20:26:55.891Z,54.39
2022-11-04T20:29:22.833Z,54.76
2022-11-04T20:31:49.775Z,55.08
2022-11-04T20:34:16.722Z,55.02
2022-11-04T20:36:44.084Z,55.01
2022-11-04T20:39:15.176Z,55.24
2022-11-04T20:41:42.906Z,54.81
2022-11-04T20:44:11.325Z,54.93
2022-11-04T20:46:39.902Z,54.66
2022-11-04T20:49:07.514Z,54.49
2022-11-04T20:51:42.081Z,54.49
2022-11-04T20:54:12.409Z,55.20
2022-11-04T20:56:41.674Z,55.29
2022-11-04T20:59:12.236Z,55.26
2022-11-04T21:01:42.756Z,55.22
2022-11-04T21:04:14.774Z,55.61
2022-11-04T21:06:42.156Z,55.33
2022-11-04T21:09:13.423Z,55.61
2022-11-04T21:11:41.446Z,55.68
2022-11-04T21:14:12.067Z,55.98
2022-11-04T21:16:39.749Z,56.10
2022-11-04T21:19:07.713Z,55.74
2022-11-04T21:21:35.384Z,55.96
2022-11-04T21:24:05.645Z,55.85
2022-11-04T21:26:35.379Z,55.85
2022-11-04T21:29:05.307Z,56.02
2022-11-04T21:31:35.085Z,55.96
2022-11-04T21:34:03.868Z,56.16
2022-11-04T21:36:31.736Z,56.16
2022-11-04T21:38:59.191Z,56.35
2022-11-04T21:41:29.250Z,56.34
2022-11-04T21:43:59.610Z,56.30
2022-11-04T21:46:28.830Z,56.98
2022-11-04T21:48:56.908Z,56.49
2022-11-04T21:51:28.757Z,56.74
2022-11-04T21:53:56.675Z,56.62
2022-11-04T21:56:26.719Z,57.33
2022-11-04T21:58:54.824Z,57.07
2022-11-04T22:01:27.183Z,56.86
2022-11-04T22:03:59.173Z,57.21
2022-11-04T22:06:33.237Z,57.39
2022-11-04T22:09:02.142Z,57.34
2022-11-04T22:11:33.350Z,57.25
2022-11-04T22:14:04.484Z,57.52
2022-11-04T22:16:35.591Z,57.50
2022-11-04T22:19:06.298Z,57.38
2022-11-04T22:21:33.938Z,57.61
2022-11-04T22:24:01.777Z,57.85
2022-11-04T22:26:32.510Z,57.24
2022-11-04T22:28:59.856Z,57.26
2022-11-04T22:31:29.698Z,57.30
2022-11-04T22:33:59.690Z,57.61
2022-11-04T22:36:27.152Z,57.27
2022-11-04T22:38:54.924Z,56.86
2022-11-04T22:41:26.074Z,57.07
2022-11-04T22:43:53.180Z,57.17
2022-11-04T22:46:23.639Z,57.47
2022-11-04T22:48:50.624Z,57.73
2022-11-04T22:51:19.121Z,57.51
2022-11-04T22:53:48.094Z,57.36
2022-11-04T22:56:18.354Z,57.30
2022-11-04T22:58:45.253Z,57.15
2022-11-04T23:01:14.988Z,57.44
2022-11-04T23:03:42.421Z,57.25
2022-11-04T23:06:10.504Z,57.32
2022-11-04T23:08:40.077Z,57.10
2022-11-04T23:11:31.825Z,56.98
2022-11-04T23:14:20.940Z,56.73
2022-11-04T23:17:09.769Z,56.91
2022-11-04T23:19:38.413Z,56.84
2022-11-04T23:22:24.513Z,56.78
2022-11-04T23:25:10.892Z,57.03
2022-11-04T23:28:01.072Z,56.94
2022-11-04T23:30:31.954Z,57.22
2022-11-04T23:33:01.944Z,57.28
2022-11-04T23:35:51.299Z,57.24
2022-11-04T23:38:19.234Z,57.26
2022-11-04T23:41:08.421Z,57.04
2022-11-04T23:43:36.152Z,57.19
2022-11-04T23:46:22.546Z,57.13
2022-11-04T23:49:08.050Z,57.01
2022-11-04T23:51:53.557Z,57.13
2022-11-04T23:54:39.062Z,57.23
2022-11-04T23:57:32.064Z,57.41
